sensor_id;sensor_type;location;lat;lon;timestamp;P1;durP1;ratioP1;P2;durP2;ratioP2
77449;SDS011;66536;53.150;18.172;2023-05-14T00:00:55;8.50;;;6.60;;
77449;SDS011;66536;53.150;18.172;2023-05-14T00:03:28;12.60;;;6.60;;
77449;SDS011;66536;53.150;18.172;2023-05-14T00:06:15;15.70;;;7.50;;
77449;SDS011;66536;53.150;18.172;2023-05-14T00:08:41;11.80;;;7.80;;
77449;SDS011;66536;53.150;18.172;2023-05-14T00:11:08;15.00;;;8.10;;
77449;SDS011;66536;53.150;18.172;2023-05-14T00:13:34;11.40;;;7.30;;
77449;SDS011;66536;53.150;18.172;2023-05-14T00:16:01;13.80;;;8.30;;
77449;SDS011;66536;53.150;18.172;2023-05-14T00:18:47;12.00;;;7.50;;
77449;SDS011;66536;53.150;18.172;2023-05-14T00:21:13;14.80;;;8.10;;
77449;SDS011;66536;53.150;18.172;2023-05-14T00:23:39;12.50;;;7.90;;
77449;SDS011;66536;53.150;18.172;2023-05-14T00:26:05;12.00;;;7.90;;
77449;SDS011;66536;53.150;18.172;2023-05-14T00:28:31;14.80;;;8.60;;
77449;SDS011;66536;53.150;18.172;2023-05-14T00:30:57;12.30;;;7.90;;
77449;SDS011;66536;53.150;18.172;2023-05-14T00:33:23;12.80;;;7.50;;
77449;SDS011;66536;53.150;18.172;2023-05-14T00:35:49;13.10;;;6.70;;
77449;SDS011;66536;53.150;18.172;2023-05-14T00:38:16;13.30;;;8.80;;
77449;SDS011;66536;53.150;18.172;2023-05-14T00:40:44;13.50;;;7.90;;
77449;SDS011;66536;53.150;18.172;2023-05-14T00:43:16;13.00;;;8.60;;
77449;SDS011;66536;53.150;18.172;2023-05-14T00:45:44;12.00;;;8.90;;
77449;SDS011;66536;53.150;18.172;2023-05-14T00:48:10;14.90;;;9.70;;
77449;SDS011;66536;53.150;18.172;2023-05-14T00:50:37;16.20;;;9.60;;
77449;SDS011;66536;53.150;18.172;2023-05-14T00:53:03;16.00;;;9.70;;
77449;SDS011;66536;53.150;18.172;2023-05-14T00:55:37;17.40;;;9.70;;
77449;SDS011;66536;53.150;18.172;2023-05-14T00:58:08;13.10;;;9.40;;
77449;SDS011;66536;53.150;18.172;2023-05-14T01:00:36;15.80;;;10.50;;
77449;SDS011;66536;53.150;18.172;2023-05-14T01:03:03;14.80;;;10.00;;
77449;SDS011;66536;53.150;18.172;2023-05-14T01:06:10;17.80;;;9.60;;
77449;SDS011;66536;53.150;18.172;2023-05-14T01:11:28;14.30;;;9.50;;
77449;SDS011;66536;53.150;18.172;2023-05-14T01:16:55;14.10;;;9.50;;
77449;SDS011;66536;53.150;18.172;2023-05-14T01:19:43;15.00;;;9.20;;
77449;SDS011;66536;53.150;18.172;2023-05-14T01:22:10;12.50;;;8.50;;
77449;SDS011;66536;53.150;18.172;2023-05-14T01:24:37;16.20;;;8.80;;
77449;SDS011;66536;53.150;18.172;2023-05-14T01:29:48;11.60;;;8.20;;
77449;SDS011;66536;53.150;18.172;2023-05-14T01:32:19;15.20;;;9.70;;
77449;SDS011;66536;53.150;18.172;2023-05-14T01:34:48;16.70;;;9.40;;
77449;SDS011;66536;53.150;18.172;2023-05-14T01:37:15;20.10;;;10.70;;
77449;SDS011;66536;53.150;18.172;2023-05-14T01:39:42;14.30;;;9.90;;
77449;SDS011;66536;53.150;18.172;2023-05-14T01:42:09;16.10;;;10.60;;
77449;SDS011;66536;53.150;18.172;2023-05-14T01:44:36;14.40;;;8.60;;
77449;SDS011;66536;53.150;18.172;2023-05-14T01:47:02;14.80;;;9.10;;
77449;SDS011;66536;53.150;18.172;2023-05-14T01:49:28;17.90;;;9.70;;
77449;SDS011;66536;53.150;18.172;2023-05-14T01:51:54;16.90;;;10.40;;
77449;SDS011;66536;53.150;18.172;2023-05-14T01:54:20;16.60;;;10.60;;
77449;SDS011;66536;53.150;18.172;2023-05-14T01:56:46;17.70;;;10.40;;
77449;SDS011;66536;53.150;18.172;2023-05-14T01:59:13;14.90;;;10.00;;
77449;SDS011;66536;53.150;18.172;2023-05-14T02:01:39;15.60;;;10.60;;
77449;SDS011;66536;53.150;18.172;2023-05-14T02:04:05;9.80;;;6.00;;
77449;SDS011;66536;53.150;18.172;2023-05-14T02:06:31;16.20;;;9.20;;
77449;SDS011;66536;53.150;18.172;2023-05-14T02:08:57;17.00;;;10.50;;
77449;SDS011;66536;53.150;18.172;2023-05-14T02:11:23;17.10;;;10.70;;
77449;SDS011;66536;53.150;18.172;2023-05-14T02:13:49;16.60;;;10.10;;
77449;SDS011;66536;53.150;18.172;2023-05-14T02:16:15;15.00;;;10.00;;
77449;SDS011;66536;53.150;18.172;2023-05-14T02:18:41;22.20;;;10.80;;
77449;SDS011;66536;53.150;18.172;2023-05-14T02:21:07;16.90;;;9.50;;
77449;SDS011;66536;53.150;18.172;2023-05-14T02:23:33;18.00;;;10.30;;
77449;SDS011;66536;53.150;18.172;2023-05-14T02:25:59;15.60;;;10.60;;
77449;SDS011;66536;53.150;18.172;2023-05-14T02:28:25;16.30;;;10.50;;
77449;SDS011;66536;53.150;18.172;2023-05-14T02:30:51;17.20;;;10.80;;
77449;SDS011;66536;53.150;18.172;2023-05-14T02:33:16;20.10;;;10.50;;
77449;SDS011;66536;53.150;18.172;2023-05-14T02:35:42;18.20;;;11.00;;
77449;SDS011;66536;53.150;18.172;2023-05-14T02:38:08;21.20;;;13.20;;
77449;SDS011;66536;53.150;18.172;2023-05-14T02:40:35;16.70;;;10.40;;
77449;SDS011;66536;53.150;18.172;2023-05-14T02:43:01;16.80;;;11.40;;
77449;SDS011;66536;53.150;18.172;2023-05-14T02:45:27;17.40;;;10.70;;
77449;SDS011;66536;53.150;18.172;2023-05-14T02:47:53;18.90;;;12.40;;
77449;SDS011;66536;53.150;18.172;2023-05-14T02:50:19;16.40;;;10.70;;
77449;SDS011;66536;53.150;18.172;2023-05-14T02:52:45;17.50;;;10.60;;
77449;SDS011;66536;53.150;18.172;2023-05-14T02:55:11;19.70;;;11.70;;
77449;SDS011;66536;53.150;18.172;2023-05-14T02:57:37;20.00;;;12.10;;
77449;SDS011;66536;53.150;18.172;2023-05-14T03:00:03;22.40;;;12.40;;
77449;SDS011;66536;53.150;18.172;2023-05-14T03:02:30;19.80;;;11.80;;
77449;SDS011;66536;53.150;18.172;2023-05-14T03:04:56;18.00;;;10.90;;
77449;SDS011;66536;53.150;18.172;2023-05-14T03:07:22;16.00;;;10.10;;
77449;SDS011;66536;53.150;18.172;2023-05-14T03:09:48;17.10;;;10.70;;
77449;SDS011;66536;53.150;18.172;2023-05-14T03:12:15;21.10;;;11.90;;
77449;SDS011;66536;53.150;18.172;2023-05-14T03:14:41;22.20;;;12.30;;
77449;SDS011;66536;53.150;18.172;2023-05-14T03:17:06;22.70;;;11.90;;
77449;SDS011;66536;53.150;18.172;2023-05-14T03:19:33;19.40;;;12.80;;
77449;SDS011;66536;53.150;18.172;2023-05-14T03:21:58;17.20;;;12.10;;
77449;SDS011;66536;53.150;18.172;2023-05-14T03:24:26;20.90;;;12.30;;
77449;SDS011;66536;53.150;18.172;2023-05-14T03:26:51;20.90;;;13.30;;
77449;SDS011;66536;53.150;18.172;2023-05-14T03:29:18;20.30;;;12.70;;
77449;SDS011;66536;53.150;18.172;2023-05-14T03:31:44;18.20;;;13.90;;
77449;SDS011;66536;53.150;18.172;2023-05-14T03:34:10;22.10;;;14.00;;
77449;SDS011;66536;53.150;18.172;2023-05-14T03:36:36;22.50;;;14.20;;
77449;SDS011;66536;53.150;18.172;2023-05-14T03:39:03;23.40;;;13.70;;
77449;SDS011;66536;53.150;18.172;2023-05-14T03:41:31;22.00;;;14.40;;
77449;SDS011;66536;53.150;18.172;2023-05-14T03:43:58;18.40;;;12.10;;
77449;SDS011;66536;53.150;18.172;2023-05-14T03:46:26;21.20;;;13.10;;
77449;SDS011;66536;53.150;18.172;2023-05-14T03:48:52;21.00;;;13.10;;
77449;SDS011;66536;53.150;18.172;2023-05-14T03:51:18;16.00;;;12.20;;
77449;SDS011;66536;53.150;18.172;2023-05-14T03:53:44;15.20;;;11.00;;
77449;SDS011;66536;53.150;18.172;2023-05-14T03:56:11;19.80;;;13.50;;
77449;SDS011;66536;53.150;18.172;2023-05-14T03:58:37;24.00;;;14.30;;
77449;SDS011;66536;53.150;18.172;2023-05-14T04:01:03;23.70;;;14.90;;
77449;SDS011;66536;53.150;18.172;2023-05-14T04:03:29;23.10;;;13.70;;
77449;SDS011;66536;53.150;18.172;2023-05-14T04:05:56;23.50;;;14.90;;
77449;SDS011;66536;53.150;18.172;2023-05-14T04:08:21;17.70;;;12.00;;
77449;SDS011;66536;53.150;18.172;2023-05-14T04:10:48;26.00;;;14.90;;
77449;SDS011;66536;53.150;18.172;2023-05-14T04:13:14;21.90;;;14.10;;
77449;SDS011;66536;53.150;18.172;2023-05-14T04:15:41;19.60;;;10.40;;
77449;SDS011;66536;53.150;18.172;2023-05-14T04:18:06;18.80;;;12.40;;
77449;SDS011;66536;53.150;18.172;2023-05-14T04:20:53;16.90;;;11.90;;
77449;SDS011;66536;53.150;18.172;2023-05-14T04:23:41;21.90;;;13.90;;
77449;SDS011;66536;53.150;18.172;2023-05-14T04:26:14;17.60;;;12.60;;
77449;SDS011;66536;53.150;18.172;2023-05-14T04:28:40;16.00;;;11.00;;
77449;SDS011;66536;53.150;18.172;2023-05-14T04:31:06;13.30;;;7.50;;
77449;SDS011;66536;53.150;18.172;2023-05-14T04:33:32;19.60;;;14.10;;
77449;SDS011;66536;53.150;18.172;2023-05-14T04:35:58;12.30;;;9.00;;
77449;SDS011;66536;53.150;18.172;2023-05-14T04:38:24;17.40;;;11.60;;
77449;SDS011;66536;53.150;18.172;2023-05-14T04:40:49;19.60;;;14.10;;
77449;SDS011;66536;53.150;18.172;2023-05-14T04:43:15;16.90;;;10.00;;
77449;SDS011;66536;53.150;18.172;2023-05-14T04:45:42;17.50;;;12.10;;
77449;SDS011;66536;53.150;18.172;2023-05-14T04:48:08;17.50;;;13.40;;
77449;SDS011;66536;53.150;18.172;2023-05-14T04:50:34;15.50;;;8.80;;
77449;SDS011;66536;53.150;18.172;2023-05-14T04:53:00;12.20;;;8.60;;
77449;SDS011;66536;53.150;18.172;2023-05-14T04:55:27;17.80;;;11.10;;
77449;SDS011;66536;53.150;18.172;2023-05-14T04:57:53;14.00;;;11.90;;
77449;SDS011;66536;53.150;18.172;2023-05-14T05:00:19;19.80;;;12.30;;
77449;SDS011;66536;53.150;18.172;2023-05-14T05:02:46;20.10;;;12.60;;
77449;SDS011;66536;53.150;18.172;2023-05-14T05:05:12;18.70;;;12.50;;
77449;SDS011;66536;53.150;18.172;2023-05-14T05:07:38;17.70;;;11.30;;
77449;SDS011;66536;53.150;18.172;2023-05-14T05:10:05;20.40;;;12.20;;
77449;SDS011;66536;53.150;18.172;2023-05-14T05:12:31;20.00;;;12.60;;
77449;SDS011;66536;53.150;18.172;2023-05-14T05:14:57;21.60;;;12.60;;
77449;SDS011;66536;53.150;18.172;2023-05-14T05:17:24;18.90;;;11.70;;
77449;SDS011;66536;53.150;18.172;2023-05-14T05:19:50;17.20;;;12.30;;
77449;SDS011;66536;53.150;18.172;2023-05-14T05:22:17;16.80;;;11.90;;
77449;SDS011;66536;53.150;18.172;2023-05-14T05:24:44;12.20;;;7.80;;
77449;SDS011;66536;53.150;18.172;2023-05-14T05:27:10;16.60;;;11.90;;
77449;SDS011;66536;53.150;18.172;2023-05-14T05:29:36;15.30;;;8.60;;
77449;SDS011;66536;53.150;18.172;2023-05-14T05:32:03;15.60;;;10.80;;
77449;SDS011;66536;53.150;18.172;2023-05-14T05:34:31;12.90;;;9.20;;
77449;SDS011;66536;53.150;18.172;2023-05-14T05:36:57;19.30;;;13.00;;
77449;SDS011;66536;53.150;18.172;2023-05-14T05:39:23;18.30;;;12.00;;
77449;SDS011;66536;53.150;18.172;2023-05-14T05:41:49;17.00;;;11.90;;
77449;SDS011;66536;53.150;18.172;2023-05-14T05:44:15;14.60;;;11.50;;
77449;SDS011;66536;53.150;18.172;2023-05-14T05:46:41;16.10;;;11.50;;
77449;SDS011;66536;53.150;18.172;2023-05-14T05:49:07;18.30;;;12.00;;
77449;SDS011;66536;53.150;18.172;2023-05-14T05:51:33;15.30;;;11.00;;
77449;SDS011;66536;53.150;18.172;2023-05-14T05:53:59;16.60;;;11.40;;
77449;SDS011;66536;53.150;18.172;2023-05-14T05:56:25;12.90;;;8.80;;
77449;SDS011;66536;53.150;18.172;2023-05-14T05:58:51;12.20;;;8.90;;
77449;SDS011;66536;53.150;18.172;2023-05-14T06:01:17;11.80;;;8.50;;
77449;SDS011;66536;53.150;18.172;2023-05-14T06:03:43;15.60;;;11.30;;
77449;SDS011;66536;53.150;18.172;2023-05-14T06:06:09;17.40;;;11.80;;
77449;SDS011;66536;53.150;18.172;2023-05-14T06:08:35;12.90;;;11.10;;
77449;SDS011;66536;53.150;18.172;2023-05-14T06:11:01;14.50;;;10.40;;
77449;SDS011;66536;53.150;18.172;2023-05-14T06:13:27;17.30;;;12.40;;
77449;SDS011;66536;53.150;18.172;2023-05-14T06:15:53;16.00;;;10.80;;
77449;SDS011;66536;53.150;18.172;2023-05-14T06:18:19;19.10;;;10.70;;
77449;SDS011;66536;53.150;18.172;2023-05-14T06:20:45;16.30;;;12.30;;
77449;SDS011;66536;53.150;18.172;2023-05-14T06:23:11;17.70;;;12.80;;
77449;SDS011;66536;53.150;18.172;2023-05-14T06:25:37;13.00;;;9.30;;
77449;SDS011;66536;53.150;18.172;2023-05-14T06:28:03;13.40;;;10.30;;
77449;SDS011;66536;53.150;18.172;2023-05-14T06:30:29;22.90;;;13.70;;
77449;SDS011;66536;53.150;18.172;2023-05-14T06:32:55;19.10;;;12.00;;
77449;SDS011;66536;53.150;18.172;2023-05-14T06:35:22;20.90;;;11.00;;
77449;SDS011;66536;53.150;18.172;2023-05-14T06:37:48;17.40;;;12.00;;
77449;SDS011;66536;53.150;18.172;2023-05-14T06:40:34;14.50;;;12.00;;
77449;SDS011;66536;53.150;18.172;2023-05-14T06:43:00;14.80;;;11.50;;
77449;SDS011;66536;53.150;18.172;2023-05-14T06:45:25;17.00;;;11.70;;
77449;SDS011;66536;53.150;18.172;2023-05-14T06:47:51;13.60;;;10.50;;
77449;SDS011;66536;53.150;18.172;2023-05-14T06:50:17;16.90;;;10.20;;
77449;SDS011;66536;53.150;18.172;2023-05-14T06:52:43;16.00;;;11.60;;
77449;SDS011;66536;53.150;18.172;2023-05-14T06:55:09;15.40;;;10.20;;
77449;SDS011;66536;53.150;18.172;2023-05-14T06:57:37;15.60;;;11.80;;
77449;SDS011;66536;53.150;18.172;2023-05-14T07:00:03;13.50;;;10.00;;
77449;SDS011;66536;53.150;18.172;2023-05-14T07:02:30;14.00;;;10.80;;
77449;SDS011;66536;53.150;18.172;2023-05-14T07:04:56;12.90;;;9.60;;
77449;SDS011;66536;53.150;18.172;2023-05-14T07:07:22;13.50;;;10.60;;
77449;SDS011;66536;53.150;18.172;2023-05-14T07:09:48;14.20;;;10.40;;
77449;SDS011;66536;53.150;18.172;2023-05-14T07:12:34;14.10;;;10.60;;
77449;SDS011;66536;53.150;18.172;2023-05-14T07:15:20;13.50;;;10.30;;
77449;SDS011;66536;53.150;18.172;2023-05-14T07:17:46;18.60;;;11.20;;
77449;SDS011;66536;53.150;18.172;2023-05-14T07:20:12;14.80;;;9.70;;
77449;SDS011;66536;53.150;18.172;2023-05-14T07:22:38;13.60;;;9.80;;
77449;SDS011;66536;53.150;18.172;2023-05-14T07:25:04;14.10;;;9.50;;
77449;SDS011;66536;53.150;18.172;2023-05-14T07:27:30;12.70;;;8.90;;
77449;SDS011;66536;53.150;18.172;2023-05-14T07:29:57;8.80;;;7.80;;
77449;SDS011;66536;53.150;18.172;2023-05-14T07:32:23;8.80;;;7.50;;
77449;SDS011;66536;53.150;18.172;2023-05-14T07:34:49;10.70;;;8.30;;
77449;SDS011;66536;53.150;18.172;2023-05-14T07:37:17;9.30;;;6.90;;
77449;SDS011;66536;53.150;18.172;2023-05-14T07:39:43;7.30;;;5.40;;
77449;SDS011;66536;53.150;18.172;2023-05-14T07:42:10;8.10;;;4.90;;
77449;SDS011;66536;53.150;18.172;2023-05-14T07:44:36;6.10;;;5.20;;
77449;SDS011;66536;53.150;18.172;2023-05-14T07:47:02;9.20;;;6.80;;
77449;SDS011;66536;53.150;18.172;2023-05-14T07:49:28;15.40;;;6.30;;
77449;SDS011;66536;53.150;18.172;2023-05-14T07:51:54;6.20;;;5.20;;
77449;SDS011;66536;53.150;18.172;2023-05-14T07:54:20;6.70;;;4.50;;
77449;SDS011;66536;53.150;18.172;2023-05-14T07:56:46;8.80;;;5.40;;
77449;SDS011;66536;53.150;18.172;2023-05-14T07:59:12;8.00;;;5.60;;
77449;SDS011;66536;53.150;18.172;2023-05-14T08:01:38;6.20;;;4.30;;
77449;SDS011;66536;53.150;18.172;2023-05-14T08:04:04;5.60;;;4.10;;
77449;SDS011;66536;53.150;18.172;2023-05-14T08:06:30;5.70;;;5.10;;
77449;SDS011;66536;53.150;18.172;2023-05-14T08:08:58;5.10;;;3.50;;
77449;SDS011;66536;53.150;18.172;2023-05-14T08:11:24;3.60;;;3.30;;
77449;SDS011;66536;53.150;18.172;2023-05-14T08:13:50;4.10;;;3.30;;
77449;SDS011;66536;53.150;18.172;2023-05-14T08:16:16;5.40;;;3.90;;
77449;SDS011;66536;53.150;18.172;2023-05-14T08:18:44;9.00;;;4.00;;
77449;SDS011;66536;53.150;18.172;2023-05-14T08:21:10;4.50;;;4.10;;
77449;SDS011;66536;53.150;18.172;2023-05-14T08:23:36;5.30;;;3.50;;
77449;SDS011;66536;53.150;18.172;2023-05-14T08:26:02;5.30;;;3.50;;
77449;SDS011;66536;53.150;18.172;2023-05-14T08:28:28;3.50;;;3.10;;
77449;SDS011;66536;53.150;18.172;2023-05-14T08:30:54;3.40;;;2.50;;
77449;SDS011;66536;53.150;18.172;2023-05-14T08:33:21;5.70;;;3.20;;
77449;SDS011;66536;53.150;18.172;2023-05-14T08:35:52;3.20;;;2.80;;
77449;SDS011;66536;53.150;18.172;2023-05-14T08:38:18;5.30;;;2.50;;
77449;SDS011;66536;53.150;18.172;2023-05-14T08:40:47;3.20;;;2.40;;
77449;SDS011;66536;53.150;18.172;2023-05-14T08:43:25;7.00;;;3.00;;
77449;SDS011;66536;53.150;18.172;2023-05-14T08:45:57;5.80;;;2.50;;
77449;SDS011;66536;53.150;18.172;2023-05-14T08:48:25;6.80;;;2.60;;
77449;SDS011;66536;53.150;18.172;2023-05-14T08:50:56;4.00;;;3.00;;
77449;SDS011;66536;53.150;18.172;2023-05-14T08:53:23;5.70;;;2.40;;
77449;SDS011;66536;53.150;18.172;2023-05-14T08:55:50;6.50;;;2.70;;
77449;SDS011;66536;53.150;18.172;2023-05-14T08:58:18;3.00;;;2.20;;
77449;SDS011;66536;53.150;18.172;2023-05-14T09:00:45;4.30;;;2.90;;
77449;SDS011;66536;53.150;18.172;2023-05-14T09:03:11;5.70;;;2.30;;
77449;SDS011;66536;53.150;18.172;2023-05-14T09:05:39;5.10;;;2.60;;
77449;SDS011;66536;53.150;18.172;2023-05-14T09:08:05;5.30;;;3.20;;
77449;SDS011;66536;53.150;18.172;2023-05-14T09:10:32;6.30;;;2.80;;
77449;SDS011;66536;53.150;18.172;2023-05-14T09:12:58;8.00;;;2.90;;
77449;SDS011;66536;53.150;18.172;2023-05-14T09:15:24;5.10;;;2.80;;
77449;SDS011;66536;53.150;18.172;2023-05-14T09:17:53;2.80;;;2.30;;
77449;SDS011;66536;53.150;18.172;2023-05-14T09:20:19;5.20;;;2.50;;
77449;SDS011;66536;53.150;18.172;2023-05-14T09:22:46;4.60;;;2.60;;
77449;SDS011;66536;53.150;18.172;2023-05-14T09:25:17;6.60;;;2.70;;
77449;SDS011;66536;53.150;18.172;2023-05-14T09:27:42;5.90;;;2.70;;
77449;SDS011;66536;53.150;18.172;2023-05-14T09:30:14;5.00;;;2.30;;
77449;SDS011;66536;53.150;18.172;2023-05-14T09:32:41;3.30;;;2.40;;
77449;SDS011;66536;53.150;18.172;2023-05-14T09:35:16;5.60;;;2.40;;
77449;SDS011;66536;53.150;18.172;2023-05-14T09:37:45;3.50;;;2.70;;
77449;SDS011;66536;53.150;18.172;2023-05-14T09:40:12;5.10;;;2.50;;
77449;SDS011;66536;53.150;18.172;2023-05-14T09:42:39;6.70;;;2.50;;
77449;SDS011;66536;53.150;18.172;2023-05-14T09:45:07;10.10;;;2.80;;
77449;SDS011;66536;53.150;18.172;2023-05-14T09:47:35;6.00;;;2.30;;
77449;SDS011;66536;53.150;18.172;2023-05-14T09:50:03;5.60;;;2.90;;
77449;SDS011;66536;53.150;18.172;2023-05-14T09:52:30;5.30;;;2.80;;
77449;SDS011;66536;53.150;18.172;2023-05-14T09:54:56;3.00;;;2.30;;
77449;SDS011;66536;53.150;18.172;2023-05-14T09:57:23;5.90;;;2.40;;
77449;SDS011;66536;53.150;18.172;2023-05-14T09:59:52;6.70;;;2.60;;
77449;SDS011;66536;53.150;18.172;2023-05-14T10:05:05;3.30;;;2.10;;
77449;SDS011;66536;53.150;18.172;2023-05-14T10:07:34;3.00;;;2.60;;
77449;SDS011;66536;53.150;18.172;2023-05-14T10:10:06;9.50;;;3.10;;
77449;SDS011;66536;53.150;18.172;2023-05-14T10:12:37;15.60;;;2.70;;
77449;SDS011;66536;53.150;18.172;2023-05-14T10:15:09;13.30;;;2.50;;
77449;SDS011;66536;53.150;18.172;2023-05-14T10:17:41;6.60;;;2.50;;
77449;SDS011;66536;53.150;18.172;2023-05-14T10:20:12;4.30;;;2.80;;
77449;SDS011;66536;53.150;18.172;2023-05-14T10:22:41;6.50;;;3.20;;
77449;SDS011;66536;53.150;18.172;2023-05-14T10:25:07;6.80;;;2.50;;
77449;SDS011;66536;53.150;18.172;2023-05-14T10:27:34;8.00;;;2.50;;
77449;SDS011;66536;53.150;18.172;2023-05-14T10:30:01;5.50;;;2.50;;
77449;SDS011;66536;53.150;18.172;2023-05-14T10:32:34;5.50;;;2.70;;
77449;SDS011;66536;53.150;18.172;2023-05-14T10:35:05;9.50;;;2.90;;
77449;SDS011;66536;53.150;18.172;2023-05-14T10:37:42;9.30;;;2.70;;
77449;SDS011;66536;53.150;18.172;2023-05-14T10:40:10;9.50;;;2.40;;
77449;SDS011;66536;53.150;18.172;2023-05-14T10:42:37;11.80;;;3.00;;
77449;SDS011;66536;53.150;18.172;2023-05-14T10:45:06;4.30;;;3.10;;
77449;SDS011;66536;53.150;18.172;2023-05-14T10:47:34;10.10;;;3.50;;
77449;SDS011;66536;53.150;18.172;2023-05-14T10:50:04;4.40;;;2.90;;
77449;SDS011;66536;53.150;18.172;2023-05-14T10:52:49;5.00;;;3.30;;
77449;SDS011;66536;53.150;18.172;2023-05-14T10:55:16;9.10;;;3.10;;
77449;SDS011;66536;53.150;18.172;2023-05-14T10:57:43;11.90;;;3.50;;
77449;SDS011;66536;53.150;18.172;2023-05-14T11:00:11;9.10;;;3.30;;
77449;SDS011;66536;53.150;18.172;2023-05-14T11:02:40;13.10;;;2.90;;
77449;SDS011;66536;53.150;18.172;2023-05-14T11:05:09;8.80;;;3.50;;
77449;SDS011;66536;53.150;18.172;2023-05-14T11:07:41;7.70;;;2.90;;
77449;SDS011;66536;53.150;18.172;2023-05-14T11:10:09;3.80;;;2.70;;
77449;SDS011;66536;53.150;18.172;2023-05-14T11:12:46;5.70;;;3.00;;
77449;SDS011;66536;53.150;18.172;2023-05-14T11:15:14;7.70;;;2.80;;
77449;SDS011;66536;53.150;18.172;2023-05-14T11:17:42;5.40;;;2.10;;
77449;SDS011;66536;53.150;18.172;2023-05-14T11:20:09;7.00;;;2.60;;
77449;SDS011;66536;53.150;18.172;2023-05-14T11:22:37;5.80;;;2.60;;
77449;SDS011;66536;53.150;18.172;2023-05-14T11:25:05;5.70;;;2.60;;
77449;SDS011;66536;53.150;18.172;2023-05-14T11:27:32;6.80;;;2.70;;
77449;SDS011;66536;53.150;18.172;2023-05-14T11:30:00;8.70;;;2.80;;
77449;SDS011;66536;53.150;18.172;2023-05-14T11:32:28;4.40;;;2.60;;
77449;SDS011;66536;53.150;18.172;2023-05-14T11:34:57;8.20;;;2.60;;
77449;SDS011;66536;53.150;18.172;2023-05-14T11:37:24;4.10;;;2.40;;
77449;SDS011;66536;53.150;18.172;2023-05-14T11:39:52;3.40;;;2.30;;
77449;SDS011;66536;53.150;18.172;2023-05-14T11:42:19;3.20;;;2.30;;
77449;SDS011;66536;53.150;18.172;2023-05-14T11:44:47;3.70;;;2.50;;
77449;SDS011;66536;53.150;18.172;2023-05-14T11:47:15;6.00;;;2.30;;
77449;SDS011;66536;53.150;18.172;2023-05-14T11:49:43;3.70;;;2.40;;
77449;SDS011;66536;53.150;18.172;2023-05-14T11:52:09;7.10;;;2.70;;
77449;SDS011;66536;53.150;18.172;2023-05-14T11:54:39;5.00;;;2.70;;
77449;SDS011;66536;53.150;18.172;2023-05-14T11:57:08;3.10;;;2.10;;
77449;SDS011;66536;53.150;18.172;2023-05-14T11:59:36;2.70;;;2.40;;
77449;SDS011;66536;53.150;18.172;2023-05-14T12:02:03;4.80;;;2.40;;
77449;SDS011;66536;53.150;18.172;2023-05-14T12:04:30;6.00;;;2.60;;
77449;SDS011;66536;53.150;18.172;2023-05-14T12:06:57;6.40;;;2.80;;
77449;SDS011;66536;53.150;18.172;2023-05-14T12:09:25;7.90;;;3.00;;
77449;SDS011;66536;53.150;18.172;2023-05-14T12:11:51;5.70;;;2.90;;
77449;SDS011;66536;53.150;18.172;2023-05-14T12:14:20;8.00;;;2.90;;
77449;SDS011;66536;53.150;18.172;2023-05-14T12:16:48;2.80;;;2.10;;
77449;SDS011;66536;53.150;18.172;2023-05-14T12:19:16;8.10;;;2.80;;
77449;SDS011;66536;53.150;18.172;2023-05-14T12:21:45;6.60;;;2.60;;
77449;SDS011;66536;53.150;18.172;2023-05-14T12:24:16;6.70;;;2.90;;
77449;SDS011;66536;53.150;18.172;2023-05-14T12:26:45;4.60;;;2.20;;
77449;SDS011;66536;53.150;18.172;2023-05-14T12:29:13;4.60;;;2.70;;
77449;SDS011;66536;53.150;18.172;2023-05-14T12:31:44;3.60;;;2.90;;
77449;SDS011;66536;53.150;18.172;2023-05-14T12:34:11;3.70;;;2.30;;
77449;SDS011;66536;53.150;18.172;2023-05-14T12:36:38;7.80;;;3.70;;
77449;SDS011;66536;53.150;18.172;2023-05-14T12:39:04;11.00;;;4.90;;
77449;SDS011;66536;53.150;18.172;2023-05-14T12:41:31;6.20;;;3.10;;
77449;SDS011;66536;53.150;18.172;2023-05-14T12:43:58;3.60;;;2.80;;
77449;SDS011;66536;53.150;18.172;2023-05-14T12:46:25;3.00;;;2.70;;
77449;SDS011;66536;53.150;18.172;2023-05-14T12:48:52;7.10;;;3.30;;
77449;SDS011;66536;53.150;18.172;2023-05-14T12:51:19;7.60;;;3.70;;
77449;SDS011;66536;53.150;18.172;2023-05-14T12:53:45;4.90;;;3.30;;
77449;SDS011;66536;53.150;18.172;2023-05-14T12:56:12;7.20;;;2.90;;
77449;SDS011;66536;53.150;18.172;2023-05-14T12:58:38;5.40;;;2.90;;
77449;SDS011;66536;53.150;18.172;2023-05-14T13:01:05;4.70;;;2.80;;
77449;SDS011;66536;53.150;18.172;2023-05-14T13:03:31;4.40;;;2.70;;
77449;SDS011;66536;53.150;18.172;2023-05-14T13:05:57;6.00;;;2.60;;
77449;SDS011;66536;53.150;18.172;2023-05-14T13:08:24;8.40;;;2.70;;
77449;SDS011;66536;53.150;18.172;2023-05-14T13:10:51;6.00;;;2.80;;
77449;SDS011;66536;53.150;18.172;2023-05-14T13:13:17;5.20;;;2.70;;
77449;SDS011;66536;53.150;18.172;2023-05-14T13:15:43;4.00;;;2.90;;
77449;SDS011;66536;53.150;18.172;2023-05-14T13:18:11;5.90;;;3.00;;
77449;SDS011;66536;53.150;18.172;2023-05-14T13:20:39;5.00;;;3.10;;
77449;SDS011;66536;53.150;18.172;2023-05-14T13:23:05;6.20;;;2.90;;
77449;SDS011;66536;53.150;18.172;2023-05-14T13:25:31;4.30;;;2.60;;
77449;SDS011;66536;53.150;18.172;2023-05-14T13:27:57;4.00;;;2.00;;
77449;SDS011;66536;53.150;18.172;2023-05-14T13:30:23;6.40;;;2.30;;
77449;SDS011;66536;53.150;18.172;2023-05-14T13:32:49;5.40;;;2.90;;
77449;SDS011;66536;53.150;18.172;2023-05-14T13:35:16;6.00;;;2.90;;
77449;SDS011;66536;53.150;18.172;2023-05-14T13:37:42;4.40;;;2.50;;
77449;SDS011;66536;53.150;18.172;2023-05-14T13:40:08;5.70;;;2.30;;
77449;SDS011;66536;53.150;18.172;2023-05-14T13:42:35;6.00;;;2.90;;
77449;SDS011;66536;53.150;18.172;2023-05-14T13:45:02;9.30;;;4.90;;
77449;SDS011;66536;53.150;18.172;2023-05-14T13:47:28;8.90;;;3.50;;
77449;SDS011;66536;53.150;18.172;2023-05-14T13:49:54;7.70;;;2.70;;
77449;SDS011;66536;53.150;18.172;2023-05-14T13:52:30;12.70;;;2.70;;
77449;SDS011;66536;53.150;18.172;2023-05-14T13:54:56;3.50;;;2.70;;
77449;SDS011;66536;53.150;18.172;2023-05-14T13:57:22;6.10;;;2.90;;
77449;SDS011;66536;53.150;18.172;2023-05-14T13:59:48;5.70;;;3.30;;
77449;SDS011;66536;53.150;18.172;2023-05-14T14:02:14;5.00;;;2.90;;
77449;SDS011;66536;53.150;18.172;2023-05-14T14:04:40;8.10;;;2.50;;
77449;SDS011;66536;53.150;18.172;2023-05-14T14:07:07;4.60;;;2.60;;
77449;SDS011;66536;53.150;18.172;2023-05-14T14:09:33;5.60;;;2.70;;
77449;SDS011;66536;53.150;18.172;2023-05-14T14:12:02;8.10;;;2.70;;
77449;SDS011;66536;53.150;18.172;2023-05-14T14:14:29;8.10;;;2.50;;
77449;SDS011;66536;53.150;18.172;2023-05-14T14:16:55;5.50;;;2.90;;
77449;SDS011;66536;53.150;18.172;2023-05-14T14:19:21;3.20;;;2.70;;
77449;SDS011;66536;53.150;18.172;2023-05-14T14:21:47;5.40;;;2.60;;
77449;SDS011;66536;53.150;18.172;2023-05-14T14:24:13;3.30;;;2.50;;
77449;SDS011;66536;53.150;18.172;2023-05-14T14:26:39;6.70;;;3.00;;
77449;SDS011;66536;53.150;18.172;2023-05-14T14:29:05;7.80;;;2.80;;
77449;SDS011;66536;53.150;18.172;2023-05-14T14:31:31;4.70;;;2.60;;
77449;SDS011;66536;53.150;18.172;2023-05-14T14:33:57;5.50;;;2.70;;
77449;SDS011;66536;53.150;18.172;2023-05-14T14:36:22;5.10;;;2.80;;